Time;durP1;ratioP1;P1;durP2;ratioP2;P2;SDS_P1;SDS_P2;PMS_P1;PMS_P2;Temp;Humidity;BMP_temperature;BMP_pressure;BME280_temperature;BME280_humidity;BME280_pressure;Samples;Min_cycle;Max_cycle;Signal;HPM_P1;HPM_P2
2021/12/30 00:00:21;;;;;;;53.65;11.13;;;;;;;10.66;100.00;101029.34;5045456;28;20139;-72
2021/12/30 00:02:47;;;;;;;57.70;12.80;;;;;;;10.70;100.00;101037.81;5041060;28;20060;-72
2021/12/30 00:05:13;;;;;;;61.28;11.82;;;;;;;10.70;100.00;101038.63;5026909;28;20041;-72
2021/12/30 00:07:39;;;;;;;50.42;11.13;;;;;;;10.72;100.00;101033.69;5041578;28;20032;-73
2021/12/30 00:10:05;;;;;;;47.38;10.95;;;;;;;10.83;100.00;101026.25;5044441;28;20036;-72
2021/12/30 00:12:31;;;;;;;54.33;12.07;;;;;;;10.84;100.00;101034.22;5053176;28;20028;-72
2021/12/30 00:14:56;;;;;;;52.35;11.93;;;;;;;10.95;100.00;101025.94;5064197;28;20028;-72
2021/12/30 00:17:22;;;;;;;43.28;10.27;;;;;;;10.93;100.00;101026.22;5045762;28;20060;-72
2021/12/30 00:19:47;;;;;;;47.20;11.60;;;;;;;10.81;100.00;101022.97;5058001;28;20474;-72
2021/12/30 00:22:13;;;;;;;48.33;11.20;;;;;;;10.78;100.00;101027.09;5058826;28;20546;-71
2021/12/30 00:24:38;;;;;;;50.85;12.02;;;;;;;10.84;100.00;101027.91;5058678;28;20123;-73
2021/12/30 00:27:04;;;;;;;47.15;10.80;;;;;;;11.05;100.00;101031.38;5063123;28;20115;-71
2021/12/30 00:29:30;;;;;;;43.20;10.15;;;;;;;10.87;100.00;101034.75;5050491;28;20048;-72
2021/12/30 00:31:55;;;;;;;47.60;10.77;;;;;;;10.95;100.00;101040.50;5033685;28;20029;-71
2021/12/30 00:34:21;;;;;;;54.90;11.15;;;;;;;11.05;100.00;101034.13;5056125;28;20041;-70
2021/12/30 00:36:46;;;;;;;51.47;11.40;;;;;;;11.11;100.00;101035.75;5058859;28;20032;-73
2021/12/30 00:39:12;;;;;;;53.05;10.27;;;;;;;11.25;100.00;101025.00;5062487;28;20487;-72
2021/12/30 00:41:37;;;;;;;62.25;10.75;;;;;;;11.20;100.00;101036.00;5060291;28;20383;-72
2021/12/30 00:44:03;;;;;;;63.20;10.40;;;;;;;11.35;100.00;101033.16;5062101;28;20432;-72
2021/12/30 00:46:30;;;;;;;64.80;10.35;;;;;;;11.58;100.00;101039.91;5061684;28;20141;-71
2021/12/30 00:48:56;;;;;;;53.70;10.07;;;;;;;11.48;100.00;101036.38;5043422;28;20020;-71
2021/12/30 00:51:21;;;;;;;53.35;10.18;;;;;;;11.52;100.00;101043.78;5059804;28;20066;-72
2021/12/30 00:53:46;;;;;;;59.05;9.80;;;;;;;11.73;100.00;101027.19;5044655;28;20037;-71
2021/12/30 00:56:12;;;;;;;56.00;8.40;;;;;;;11.83;100.00;101026.28;5062794;28;20040;-71
2021/12/30 00:58:37;;;;;;;54.13;9.73;;;;;;;11.75;100.00;101025.75;5062509;28;20052;-72
2021/12/30 01:01:04;;;;;;;44.40;8.65;;;;;;;11.81;100.00;101023.81;5036744;28;20210;-71
2021/12/30 01:03:32;;;;;;;50.72;8.13;;;;;;;11.98;100.00;101026.19;5042998;28;20128;-72
2021/12/30 01:05:59;;;;;;;45.15;7.80;;;;;;;11.87;100.00;101027.34;5024360;28;20491;-71
2021/12/30 01:08:25;;;;;;;44.63;8.52;;;;;;;12.06;100.00;101022.81;5026260;28;20033;-71
2021/12/30 01:10:50;;;;;;;43.17;6.70;;;;;;;12.04;100.00;101030.53;5042831;28;20118;-71
2021/12/30 01:13:22;;;;;;;40.85;6.88;;;;;;;11.93;100.00;101027.03;5043817;28;20112;-71
2021/12/30 01:16:18;;;;;;;33.87;6.67;;;;;;;11.97;100.00;101021.81;5044648;28;20033;-70
2021/12/30 01:18:55;;;;;;;30.77;6.43;;;;;;;12.04;100.00;101026.97;5041234;28;20073;-71
2021/12/30 01:21:23;;;;;;;30.77;6.13;;;;;;;12.08;100.00;101025.28;5042751;28;20029;-71
2021/12/30 01:23:48;;;;;;;34.60;6.85;;;;;;;11.94;100.00;101036.94;5043587;28;20469;-72
2021/12/30 01:26:14;;;;;;;27.33;6.00;;;;;;;12.06;100.00;101053.06;5044025;28;20391;-71
2021/12/30 01:28:40;;;;;;;26.75;5.93;;;;;;;12.04;100.00;101049.78;5044515;28;20013;-71
2021/12/30 01:31:07;;;;;;;24.10;6.18;;;;;;;12.05;100.00;101058.81;5043149;28;20456;-71
2021/12/30 01:33:33;;;;;;;29.77;6.65;;;;;;;12.01;100.00;101077.00;5042428;28;20033;-71
2021/12/30 01:36:00;;;;;;;26.05;7.25;;;;;;;12.20;100.00;101080.72;5024455;28;20037;-70
2021/12/30 01:38:26;;;;;;;22.48;6.03;;;;;;;12.08;100.00;101075.56;5010154;28;20029;-71
2021/12/30 01:40:54;;;;;;;22.35;6.75;;;;;;;12.18;100.00;101079.34;5043600;28;20486;-71
2021/12/30 01:43:20;;;;;;;23.63;6.10;;;;;;;12.03;100.00;101074.78;5043407;28;20490;-71
2021/12/30 01:45:47;;;;;;;22.95;6.50;;;;;;;12.20;100.00;101079.88;5054993;28;20032;-70
2021/12/30 01:48:13;;;;;;;22.90;5.93;;;;;;;12.14;100.00;101079.91;5063425;28;20526;-70
2021/12/30 01:50:39;;;;;;;20.63;5.97;;;;;;;12.27;100.00;101085.88;5063531;28;20025;-72
2021/12/30 01:53:06;;;;;;;20.70;5.32;;;;;;;12.06;100.00;101090.72;5061616;28;20637;-71
2021/12/30 01:55:33;;;;;;;16.80;5.10;;;;;;;12.25;100.00;101085.34;5064679;28;20099;-71
2021/12/30 01:58:00;;;;;;;17.55;5.40;;;;;;;12.17;100.00;101086.78;5061383;28;20020;-71
2021/12/30 02:00:27;;;;;;;17.55;5.53;;;;;;;12.25;100.00;101091.66;5063554;28;20123;-71
2021/12/30 02:02:52;;;;;;;17.15;5.00;;;;;;;12.12;100.00;101084.06;5062454;28;20032;-71
2021/12/30 02:05:18;;;;;;;15.23;5.30;;;;;;;12.16;100.00;101078.81;5046936;28;20111;-71
2021/12/30 02:07:44;;;;;;;13.27;5.18;;;;;;;12.27;100.00;101080.38;5041330;28;20033;-70
2021/12/30 02:10:10;;;;;;;16.42;5.07;;;;;;;12.17;100.00;101078.53;5046658;28;20025;-71
2021/12/30 02:12:38;;;;;;;19.35;4.68;;;;;;;12.05;100.00;101069.81;5044871;28;20514;-72
2021/12/30 02:15:07;;;;;;;14.82;4.68;;;;;;;11.94;100.00;101089.13;5011750;28;20087;-71
2021/12/30 02:17:33;;;;;;;13.70;4.68;;;;;;;11.86;100.00;101077.91;5044450;28;20025;-70
2021/12/30 02:20:00;;;;;;;17.67;5.40;;;;;;;12.05;100.00;101084.41;5043479;28;20033;-70
2021/12/30 02:22:26;;;;;;;12.27;4.82;;;;;;;11.93;100.00;101082.00;5044212;28;20139;-70
2021/12/30 02:24:51;;;;;;;15.20;5.10;;;;;;;11.85;100.00;101093.56;5044497;28;20135;-70
2021/12/30 02:27:17;;;;;;;12.68;4.45;;;;;;;11.80;100.00;101095.53;5044546;28;20558;-70
2021/12/30 02:29:43;;;;;;;12.77;5.10;;;;;;;11.89;100.00;101104.81;5044937;28;20029;-70
2021/12/30 02:32:10;;;;;;;14.13;5.07;;;;;;;12.01;100.00;101116.28;5045353;28;20054;-70
2021/12/30 02:34:39;;;;;;;14.82;5.55;;;;;;;12.05;100.00;101109.13;5045362;28;20542;-70
2021/12/30 02:37:06;;;;;;;13.00;4.97;;;;;;;12.22;100.00;101110.66;5040519;28;20095;-70
2021/12/30 02:39:33;;;;;;;12.85;4.68;;;;;;;12.19;100.00;101113.97;5046115;28;20072;-72
2021/12/30 02:41:59;;;;;;;10.93;4.53;;;;;;;12.08;100.00;101113.22;5056725;28;20642;-71
2021/12/30 02:44:25;;;;;;;15.27;5.50;;;;;;;12.19;100.00;101127.72;5065036;28;20055;-71
2021/12/30 02:46:53;;;;;;;13.63;5.25;;;;;;;11.97;100.00;101120.72;5064002;28;20117;-71
2021/12/30 02:49:18;;;;;;;13.23;5.15;;;;;;;12.06;100.00;101124.50;5057094;28;20517;-71
2021/12/30 02:51:44;;;;;;;11.25;5.10;;;;;;;12.01;100.00;101124.53;5060495;28;20036;-71
2021/12/30 02:54:10;;;;;;;16.50;6.00;;;;;;;12.05;100.00;101127.53;5047624;28;20457;-71
2021/12/30 02:56:35;;;;;;;21.08;6.18;;;;;;;11.82;100.00;101123.53;5047242;28;20024;-71
2021/12/30 02:59:01;;;;;;;17.48;6.38;;;;;;;11.84;100.00;101129.56;5044159;28;20037;-70
2021/12/30 03:01:29;;;;;;;30.88;6.65;;;;;;;11.79;100.00;101119.44;5062277;28;20028;-70
2021/12/30 03:03:55;;;;;;;21.17;6.50;;;;;;;11.83;100.00;101127.94;5062342;28;20032;-71
2021/12/30 03:06:21;;;;;;;18.35;6.88;;;;;;;11.98;100.00;101133.34;5063453;28;20278;-71
2021/12/30 03:08:48;;;;;;;22.52;5.93;;;;;;;11.95;100.00;101131.16;5065088;28;20043;-71
2021/12/30 03:11:15;;;;;;;18.70;6.03;;;;;;;11.82;100.00;101120.78;5066208;28;20038;-70
2021/12/30 03:13:43;;;;;;;23.67;7.50;;;;;;;11.86;100.00;101130.09;5058031;28;20025;-69
2021/12/30 03:16:13;;;;;;;20.58;6.30;;;;;;;11.86;100.00;101130.09;5046679;28;20058;-71
2021/12/30 03:18:41;;;;;;;19.10;6.63;;;;;;;11.89;100.00;101132.28;5052911;28;20472;-71
2021/12/30 03:21:09;;;;;;;21.15;7.00;;;;;;;11.90;100.00;101137.50;5042922;28;21319;-71
2021/12/30 03:23:35;;;;;;;22.98;7.93;;;;;;;12.00;100.00;101135.81;5048545;28;20024;-70
2021/12/30 03:26:01;;;;;;;18.88;6.90;;;;;;;12.10;100.00;101131.09;5064273;28;20429;-71
2021/12/30 03:28:27;;;;;;;20.73;6.60;;;;;;;12.08;100.00;101137.97;5066018;28;20495;-69
2021/12/30 03:30:52;;;;;;;21.45;7.53;;;;;;;12.17;100.00;101143.66;5056808;28;20111;-70
2021/12/30 03:33:23;;;;;;;24.38;6.57;;;;;;;12.20;100.00;101143.94;5062196;28;20029;-71
2021/12/30 03:35:49;;;;;;;26.60;7.72;;;;;;;12.25;100.00;101132.09;5063382;28;20084;-70
2021/12/30 03:38:14;;;;;;;21.13;7.05;;;;;;;12.08;100.00;101140.72;5045391;28;20506;-70
2021/12/30 03:40:39;;;;;;;25.48;7.32;;;;;;;12.19;100.00;101134.03;5066238;28;20044;-71
2021/12/30 03:43:05;;;;;;;20.27;6.53;;;;;;;12.07;100.00;101142.63;5063607;28;20442;-70
2021/12/30 03:45:30;;;;;;;17.63;6.40;;;;;;;12.18;100.00;101156.31;5045955;28;20493;-70
2021/12/30 03:47:56;;;;;;;23.20;7.13;;;;;;;12.07;100.00;101153.63;5060003;28;20100;-71
2021/12/30 03:50:26;;;;;;;18.48;5.55;;;;;;;12.23;100.00;101151.63;5064939;28;20025;-71
2021/12/30 03:52:55;;;;;;;17.33;4.70;;;;;;;12.22;100.00;101151.91;5060745;28;20453;-71
2021/12/30 03:55:22;;;;;;;20.80;5.82;;;;;;;12.30;100.00;101137.53;5045870;28;20104;-71
2021/12/30 03:57:49;;;;;;;19.20;4.82;;;;;;;12.27;100.00;101149.91;5043961;28;20407;-70
2021/12/30 04:00:15;;;;;;;14.98;4.00;;;;;;;12.16;100.00;101137.34;5027602;28;20064;-71
2021/12/30 04:02:42;;;;;;;17.00;4.60;;;;;;;12.23;100.00;101126.03;5044054;28;20204;-70
2021/12/30 04:05:08;;;;;;;20.38;4.07;;;;;;;12.23;100.00;101113.13;5024074;28;20033;-70
2021/12/30 04:07:35;;;;;;;19.58;4.38;;;;;;;12.21;100.00;101122.75;5042066;28;20032;-69
2021/12/30 04:10:01;;;;;;;20.10;4.68;;;;;;;12.27;100.00;101129.88;5042088;28;20055;-71
2021/12/30 04:12:26;;;;;;;22.05;4.78;;;;;;;12.12;100.00;101128.88;5043784;28;20037;-71
2021/12/30 04:14:52;;;;;;;19.67;4.43;;;;;;;12.18;100.00;101129.63;5041394;28;20036;-69
2021/12/30 04:17:17;;;;;;;14.82;4.15;;;;;;;12.07;100.00;101125.34;5010541;28;20501;-71
2021/12/30 04:19:43;;;;;;;22.40;4.32;;;;;;;11.99;100.00;101124.00;5061544;28;20542;-70
2021/12/30 04:22:08;;;;;;;21.60;4.70;;;;;;;12.02;100.00;101125.34;5042613;28;20521;-70
2021/12/30 04:24:34;;;;;;;20.63;4.80;;;;;;;11.99;100.00;101131.44;5063504;28;20028;-70
2021/12/30 04:26:59;;;;;;;22.67;4.82;;;;;;;11.94;100.00;101124.03;5062280;28;20544;-71
2021/12/30 04:29:24;;;;;;;23.77;5.10;;;;;;;12.17;100.00;101125.25;5061359;28;20111;-71
2021/12/30 04:31:51;;;;;;;21.73;4.50;;;;;;;12.23;100.00;101128.78;5063268;28;20033;-70
2021/12/30 04:34:17;;;;;;;17.58;4.47;;;;;;;12.42;100.00;101128.91;5060295;28;20534;-70
2021/12/30 04:36:42;;;;;;;19.77;4.47;;;;;;;12.25;100.00;101123.84;5060497;28;20498;-70
2021/12/30 04:39:08;;;;;;;18.13;3.70;;;;;;;12.36;100.00;101117.13;5063180;28;20082;-69
2021/12/30 04:41:34;;;;;;;15.98;3.83;;;;;;;12.36;100.00;101113.56;5064576;28;20106;-71
2021/12/30 04:43:59;;;;;;;15.90;3.20;;;;;;;12.39;100.00;101115.75;5062680;28;20120;-70
2021/12/30 04:46:25;;;;;;;15.88;3.70;;;;;;;12.45;100.00;101118.16;5059813;28;20040;-69
2021/12/30 04:48:52;;;;;;;17.83;3.78;;;;;;;12.59;100.00;101120.25;5041675;28;20430;-69
2021/12/30 04:51:18;;;;;;;17.35;3.20;;;;;;;12.49;100.00;101107.41;5024736;28;20574;-70
2021/12/30 04:53:44;;;;;;;20.75;3.45;;;;;;;12.48;100.00;101108.53;5044042;28;20487;-70
2021/12/30 04:56:10;;;;;;;16.00;3.90;;;;;;;12.62;100.00;101111.41;5040036;28;20442;-69
2021/12/30 04:58:35;;;;;;;21.35;3.40;;;;;;;12.49;100.00;101110.16;5043661;28;20479;-71
2021/12/30 05:01:01;;;;;;;15.38;3.40;;;;;;;12.57;100.00;101098.53;5044983;28;20472;-70
2021/12/30 05:03:27;;;;;;;16.00;3.72;;;;;;;12.48;100.00;101111.28;5043604;28;20127;-70
2021/12/30 05:05:55;;;;;;;10.98;3.05;;;;;;;12.46;100.00;101111.56;5042306;28;20045;-70
2021/12/30 05:08:24;;;;;;;15.27;3.25;;;;;;;12.43;100.00;101098.38;5024768;28;20047;-69
2021/12/30 05:10:52;;;;;;;15.82;3.40;;;;;;;12.42;100.00;101107.75;5062746;28;20435;-69
2021/12/30 05:13:18;;;;;;;15.38;3.78;;;;;;;12.38;100.00;101114.94;5053346;28;20025;-70
2021/12/30 05:15:47;;;;;;;9.13;2.88;;;;;;;12.75;100.00;101107.16;5044337;28;20040;-71
2021/12/30 05:18:14;;;;;;;13.30;3.10;;;;;;;12.65;100.00;101102.59;5040586;28;20717;-70
2021/12/30 05:20:39;;;;;;;9.98;2.90;;;;;;;12.63;100.00;101115.81;5043763;28;20033;-68
2021/12/30 05:23:06;;;;;;;9.63;2.55;;;;;;;12.63;100.00;101130.38;5040721;28;20025;-70
2021/12/30 05:25:32;;;;;;;11.30;2.72;;;;;;;12.73;100.00;101112.97;5044105;28;20037;-70
2021/12/30 05:27:58;;;;;;;10.45;2.67;;;;;;;12.72;100.00;101097.56;5040612;28;20040;-69
2021/12/30 05:30:25;;;;;;;9.73;2.67;;;;;;;12.64;100.00;101107.28;5045413;28;20025;-68
2021/12/30 05:32:56;;;;;;;9.85;2.70;;;;;;;12.64;100.00;101103.69;5043742;28;20060;-70
2021/12/30 05:35:22;;;;;;;14.60;3.08;;;;;;;12.63;100.00;101091.06;5043445;28;20033;-71
2021/12/30 05:37:49;;;;;;;12.25;2.78;;;;;;;12.71;100.00;101095.94;5044925;28;20045;-70
2021/12/30 05:40:17;;;;;;;11.63;3.08;;;;;;;12.66;100.00;101104.25;5045748;28;20033;-70
2021/12/30 05:42:43;;;;;;;8.85;2.78;;;;;;;12.55;100.00;101116.44;5060122;28;20040;-68
2021/12/30 05:45:09;;;;;;;12.10;2.75;;;;;;;12.72;100.00;101116.81;5063877;28;20028;-70
2021/12/30 05:47:38;;;;;;;8.85;3.13;;;;;;;12.76;100.00;101122.59;5067982;28;20073;-70
2021/12/30 05:50:07;;;;;;;12.50;3.10;;;;;;;12.67;100.00;101141.63;5054486;28;20090;-69
2021/12/30 05:52:32;;;;;;;11.63;3.45;;;;;;;12.64;100.00;101139.44;5063467;28;20036;-68
2021/12/30 05:54:58;;;;;;;11.38;2.83;;;;;;;12.68;100.00;101143.28;5046086;28;20025;-69
2021/12/30 05:57:23;;;;;;;18.48;3.15;;;;;;;12.63;100.00;101146.06;5041017;28;20141;-68
2021/12/30 05:59:49;;;;;;;13.70;2.60;;;;;;;12.72;100.00;101138.00;5048795;28;20129;-69
2021/12/30 06:02:14;;;;;;;11.27;2.78;;;;;;;12.69;100.00;101136.66;5062991;28;20188;-69
2021/12/30 06:04:41;;;;;;;15.45;3.17;;;;;;;12.77;100.00;101140.72;5062935;28;20058;-70
2021/12/30 06:07:08;;;;;;;15.50;2.60;;;;;;;12.71;100.00;101144.59;5065110;28;20044;-69
2021/12/30 06:09:33;;;;;;;14.23;3.05;;;;;;;12.79;100.00;101150.31;5064151;28;20496;-69
2021/12/30 06:11:59;;;;;;;14.35;2.63;;;;;;;12.85;100.00;101162.94;5064231;28;20036;-69
2021/12/30 06:14:24;;;;;;;10.05;2.40;;;;;;;12.87;100.00;101157.09;5028719;28;20511;-70
2021/12/30 06:16:50;;;;;;;12.30;2.38;;;;;;;12.75;100.00;101138.25;5062200;28;20024;-69
2021/12/30 06:19:16;;;;;;;15.25;2.40;;;;;;;12.61;100.00;101145.53;5017261;28;20703;-69
2021/12/30 06:21:41;;;;;;;11.45;2.60;;;;;;;12.96;100.00;101149.06;5044425;28;20037;-69
2021/12/30 06:24:06;;;;;;;15.32;2.95;;;;;;;12.95;100.00;101166.69;5026721;28;20029;-69
2021/12/30 06:26:32;;;;;;;13.73;2.60;;;;;;;12.76;100.00;101150.09;5053741;28;20029;-70
2021/12/30 06:28:58;;;;;;;15.68;2.50;;;;;;;12.86;100.00;101144.47;5064869;28;20024;-69
2021/12/30 06:31:24;;;;;;;12.82;2.53;;;;;;;13.11;100.00;101148.91;5045694;28;20060;-70
2021/12/30 06:33:49;;;;;;;9.35;1.95;;;;;;;12.99;100.00;101156.75;5062426;28;20028;-68
2021/12/30 06:36:17;;;;;;;7.82;2.00;;;;;;;13.02;100.00;101153.41;5062752;28;20758;-68
2021/12/30 06:38:42;;;;;;;12.38;2.22;;;;;;;12.94;100.00;101151.28;5062658;28;20117;-69
2021/12/30 06:41:07;;;;;;;9.73;2.42;;;;;;;13.13;100.00;101160.44;5045338;28;20082;-69
2021/12/30 06:43:33;;;;;;;11.52;2.17;;;;;;;13.01;100.00;101165.53;5044192;28;20432;-68
2021/12/30 06:46:03;;;;;;;7.97;2.47;;;;;;;13.00;100.00;101163.88;5042833;28;20040;-68
2021/12/30 06:48:29;;;;;;;11.43;2.53;;;;;;;13.02;100.00;101181.75;5040702;28;20072;-67
2021/12/30 06:50:59;;;;;;;10.98;2.45;;;;;;;12.69;100.00;101184.25;5044439;28;20547;-68
2021/12/30 06:53:25;;;;;;;9.65;3.08;;;;;;;12.63;100.00;101192.84;5044643;28;20087;-68
2021/12/30 06:55:53;;;;;;;12.85;3.30;;;;;;;12.60;100.00;101196.97;5046327;28;20033;-70
2021/12/30 06:58:20;;;;;;;11.50;3.25;;;;;;;12.62;100.00;101194.75;5027326;28;20079;-70
2021/12/30 07:00:47;;;;;;;11.93;3.67;;;;;;;12.69;100.00;101195.25;5045321;28;20381;-68
2021/12/30 07:03:13;;;;;;;9.10;2.78;;;;;;;12.50;100.00;101192.38;5043055;28;20028;-68
2021/12/30 07:05:38;;;;;;;7.20;3.22;;;;;;;12.41;100.00;101188.59;5045989;28;20055;-69
2021/12/30 07:08:05;;;;;;;11.70;3.20;;;;;;;12.65;100.00;101212.63;5043560;28;20372;-68
2021/12/30 07:10:31;;;;;;;13.48;3.50;;;;;;;12.81;100.00;101196.81;5045791;28;20028;-69
2021/12/30 07:12:56;;;;;;;11.38;3.75;;;;;;;12.44;100.00;101189.94;5046836;28;20025;-68
2021/12/30 07:15:22;;;;;;;18.00;4.22;;;;;;;12.44;100.00;101195.44;5046743;28;20037;-69
2021/12/30 07:17:48;;;;;;;16.95;4.90;;;;;;;12.37;100.00;101208.69;5043540;28;20439;-70
2021/12/30 07:20:14;;;;;;;22.08;4.95;;;;;;;12.48;100.00;101213.03;5046407;28;20039;-68
2021/12/30 07:22:40;;;;;;;24.20;5.18;;;;;;;12.27;100.00;101204.91;5044528;28;20099;-68
2021/12/30 07:25:07;;;;;;;19.67;5.18;;;;;;;12.16;100.00;101227.25;5045261;28;20079;-69
2021/12/30 07:27:32;;;;;;;28.85;5.63;;;;;;;12.22;100.00;101221.44;5046758;28;20048;-69
2021/12/30 07:29:59;;;;;;;27.48;6.35;;;;;;;12.31;100.00;101218.91;5046260;28;20475;-69
2021/12/30 07:32:25;;;;;;;20.13;5.47;;;;;;;12.16;100.00;101224.50;5046852;28;20033;-69
2021/12/30 07:34:51;;;;;;;21.67;4.65;;;;;;;12.07;100.00;101227.84;5044417;28;20395;-70
2021/12/30 07:37:16;;;;;;;21.95;4.85;;;;;;;12.11;100.00;101230.84;5043204;28;20029;-69
2021/12/30 07:39:42;;;;;;;21.27;4.25;;;;;;;12.16;100.00;101224.50;5045741;28;20619;-69
2021/12/30 07:42:08;;;;;;;16.10;4.32;;;;;;;12.13;100.00;101239.63;5045829;28;20055;-69
2021/12/30 07:44:33;;;;;;;24.13;5.63;;;;;;;12.00;100.00;101238.28;5045779;28;20024;-69
2021/12/30 07:46:59;;;;;;;26.75;5.65;;;;;;;12.04;100.00;101247.63;5044252;28;20483;-69
2021/12/30 07:49:24;;;;;;;22.52;5.65;;;;;;;12.03;100.00;101250.66;5041460;28;20772;-67
2021/12/30 07:51:50;;;;;;;25.17;6.30;;;;;;;11.96;100.00;101250.97;5042383;28;20040;-70
2021/12/30 07:54:16;;;;;;;28.42;6.53;;;;;;;11.89;100.00;101255.94;5042978;28;20040;-70
2021/12/30 07:56:41;;;;;;;27.27;6.80;;;;;;;11.98;100.00;101251.50;5044855;28;20032;-69
2021/12/30 07:59:07;;;;;;;29.35;6.55;;;;;;;12.04;100.00;101257.81;5043508;28;20021;-69
2021/12/30 08:01:33;;;;;;;26.83;6.25;;;;;;;12.17;100.00;101268.19;5044652;28;20033;-69
2021/12/30 08:03:58;;;;;;;26.80;6.40;;;;;;;12.19;100.00;101260.47;5040994;28;20049;-69
2021/12/30 08:06:27;;;;;;;29.35;7.47;;;;;;;12.10;100.00;101274.00;5040173;28;20029;-68
2021/12/30 08:08:53;;;;;;;27.75;6.55;;;;;;;12.26;100.00;101265.66;5044957;28;20028;-68
2021/12/30 08:11:18;;;;;;;35.75;7.82;;;;;;;12.28;100.00;101277.19;5041967;28;20032;-69
2021/12/30 08:13:44;;;;;;;37.60;7.28;;;;;;;12.55;100.00;101274.03;5044307;28;20499;-69
2021/12/30 08:16:09;;;;;;;35.90;6.85;;;;;;;12.33;100.00;101282.69;5042999;28;20449;-69
2021/12/30 08:18:34;;;;;;;32.90;8.02;;;;;;;12.18;100.00;101277.25;5043561;28;20040;-71
2021/12/30 08:21:01;;;;;;;34.97;7.25;;;;;;;12.25;100.00;101280.53;5043111;28;20154;-67
2021/12/30 08:23:27;;;;;;;29.65;7.10;;;;;;;12.06;100.00;101274.84;5009154;28;20090;-70
2021/12/30 08:25:53;;;;;;;33.13;7.32;;;;;;;12.09;100.00;101271.53;5044658;28;20028;-68
2021/12/30 08:28:19;;;;;;;32.65;7.97;;;;;;;12.23;100.00;101304.72;5008815;28;20476;-69
2021/12/30 08:30:45;;;;;;;28.73;7.00;;;;;;;12.16;100.00;101313.25;5045311;28;20162;-69
2021/12/30 08:33:10;;;;;;;38.60;7.70;;;;;;;12.08;100.00;101295.41;5040315;28;20628;-68
2021/12/30 08:35:36;;;;;;;35.65;7.88;;;;;;;12.27;100.00;101289.31;5044573;28;20048;-69
2021/12/30 08:38:01;;;;;;;36.92;8.38;;;;;;;12.42;100.00;101293.91;5043738;28;20037;-69
2021/12/30 08:40:27;;;;;;;36.35;7.38;;;;;;;12.20;100.00;101297.03;5045703;28;20320;-69
2021/12/30 08:42:52;;;;;;;42.50;7.60;;;;;;;12.19;100.00;101285.22;5046057;28;20033;-69
2021/12/30 08:45:18;;;;;;;38.88;7.93;;;;;;;12.19;100.00;101295.41;5051502;28;20032;-69
2021/12/30 08:47:45;;;;;;;52.42;7.80;;;;;;;12.09;100.00;101296.25;5053715;28;20041;-68
2021/12/30 08:50:13;;;;;;;37.53;7.97;;;;;;;12.13;100.00;101303.66;5051927;28;20301;-70
2021/12/30 08:52:40;;;;;;;47.75;7.85;;;;;;;12.30;100.00;101319.00;5047559;28;20537;-69
2021/12/30 08:55:07;;;;;;;37.72;7.90;;;;;;;12.28;100.00;101307.44;5042800;28;20120;-69
2021/12/30 08:57:36;;;;;;;40.88;8.32;;;;;;;12.11;100.00;101327.84;5022977;28;20515;-71
2021/12/30 09:00:05;;;;;;;42.25;8.10;;;;;;;12.07;100.00;101339.72;5041377;28;20399;-70
2021/12/30 09:02:30;;;;;;;40.40;8.27;;;;;;;12.25;100.00;101335.50;5041515;28;20028;-69
2021/12/30 09:04:56;;;;;;;45.53;7.30;;;;;;;12.37;100.00;101336.00;5040508;28;20124;-69
2021/12/30 09:07:22;;;;;;;40.55;8.68;;;;;;;12.32;100.00;101333.28;5039422;28;20120;-68
2021/12/30 09:09:47;;;;;;;46.05;8.43;;;;;;;12.43;100.00;101329.38;5046603;28;20471;-68
2021/12/30 09:12:13;;;;;;;40.38;8.55;;;;;;;12.32;100.00;101330.53;5050326;28;20025;-69
2021/12/30 09:14:38;;;;;;;49.83;8.10;;;;;;;12.36;100.00;101326.09;5047040;28;20505;-69
2021/12/30 09:17:05;;;;;;;43.70;7.90;;;;;;;12.42;100.00;101316.72;5047196;28;20383;-70
2021/12/30 09:19:30;;;;;;;45.00;8.75;;;;;;;12.45;100.00;101334.59;5052977;28;20104;-70
2021/12/30 09:21:56;;;;;;;43.08;8.35;;;;;;;12.34;100.00;101320.06;5055792;28;20528;-69
2021/12/30 09:24:23;;;;;;;44.35;9.27;;;;;;;12.16;100.00;101332.50;5064876;28;20043;-69
2021/12/30 09:26:48;;;;;;;41.78;7.93;;;;;;;12.46;100.00;101338.97;5065272;28;20124;-71
2021/12/30 09:29:15;;;;;;;35.05;7.05;;;;;;;12.22;100.00;101336.88;5063758;28;20096;-68
2021/12/30 09:31:43;;;;;;;42.28;8.13;;;;;;;12.30;100.00;101324.50;5063930;28;20036;-71
2021/12/30 09:34:09;;;;;;;56.65;8.18;;;;;;;12.49;100.00;101328.25;5063689;28;20028;-70
2021/12/30 09:36:37;;;;;;;36.53;7.03;;;;;;;12.38;100.00;101329.41;5061096;28;20792;-70
2021/12/30 09:39:08;;;;;;;45.75;7.85;;;;;;;12.29;100.00;101323.66;5064142;28;20044;-68
2021/12/30 09:41:37;;;;;;;41.50;7.80;;;;;;;12.17;100.00;101336.91;5063197;28;20354;-69
2021/12/30 09:44:04;;;;;;;41.03;7.53;;;;;;;12.49;100.00;101342.00;5064011;28;20113;-69
2021/12/30 09:46:30;;;;;;;37.08;8.18;;;;;;;12.43;100.00;101348.63;5060755;28;20028;-68
2021/12/30 09:48:55;;;;;;;41.25;8.20;;;;;;;12.35;100.00;101346.47;5064037;28;20337;-69
2021/12/30 09:51:21;;;;;;;37.63;8.30;;;;;;;12.25;100.00;101358.31;5042962;28;20408;-69
2021/12/30 09:53:50;;;;;;;31.45;6.53;;;;;;;12.26;100.00;101343.44;5065512;28;20036;-70
2021/12/30 09:56:20;;;;;;;46.45;8.20;;;;;;;12.66;100.00;101332.56;5063189;28;20032;-68
2021/12/30 09:58:46;;;;;;;33.20;6.38;;;;;;;12.37;100.00;101336.00;5064717;28;20036;-69
2021/12/30 10:01:12;;;;;;;46.55;7.93;;;;;;;12.43;100.00;101329.38;5064607;28;20025;-69
2021/12/30 10:03:37;;;;;;;44.78;6.93;;;;;;;12.45;100.00;101327.16;5060978;28;20436;-69
2021/12/30 10:06:12;;;;;;;47.42;8.68;;;;;;;12.58;100.00;101335.91;5062686;28;20292;-68
2021/12/30 10:08:42;;;;;;;35.67;7.63;;;;;;;12.34;100.00;101333.81;5063510;28;20247;-70
2021/12/30 10:11:14;;;;;;;34.65;7.22;;;;;;;12.39;100.00;101344.78;5065843;28;20428;-68
2021/12/30 10:13:56;;;;;;;38.95;8.05;;;;;;;12.60;100.00;101330.94;5063673;28;20379;-68
2021/12/30 10:16:23;;;;;;;36.83;6.63;;;;;;;12.74;100.00;101337.47;5063253;28;20386;-69
2021/12/30 10:19:00;;;;;;;31.88;6.90;;;;;;;12.78;100.00;101348.72;5066172;28;20039;-70
2021/12/30 10:21:40;;;;;;;26.60;6.40;;;;;;;12.61;100.00;101338.91;5062041;28;20031;-68
2021/12/30 10:24:08;;;;;;;28.63;6.25;;;;;;;12.70;100.00;101341.88;5065285;28;20031;-70
2021/12/30 10:26:57;;;;;;;27.25;5.35;;;;;;;12.71;100.00;101343.53;5063452;28;20028;-69
2021/12/30 10:29:24;;;;;;;25.63;5.28;;;;;;;12.84;100.00;101342.88;5066264;28;20127;-69
2021/12/30 10:31:50;;;;;;;23.90;5.85;;;;;;;12.82;100.00;101336.84;5065060;28;20028;-68
2021/12/30 10:34:19;;;;;;;26.92;5.68;;;;;;;12.97;100.00;101338.69;5060849;28;20123;-69
2021/12/30 10:36:47;;;;;;;27.33;5.93;;;;;;;12.72;100.00;101350.66;5049843;28;20032;-68
2021/12/30 10:39:14;;;;;;;27.17;5.15;;;;;;;12.87;100.00;101345.06;5066852;28;20037;-68
2021/12/30 10:41:39;;;;;;;19.50;5.38;;;;;;;12.88;100.00;101330.19;5062319;28;20393;-69
2021/12/30 10:44:05;;;;;;;23.20;5.30;;;;;;;12.83;100.00;101352.25;5065293;28;20426;-69
2021/12/30 10:46:31;;;;;;;20.27;4.60;;;;;;;12.79;100.00;101361.34;5055499;28;20029;-70
2021/12/30 10:49:09;;;;;;;22.17;4.80;;;;;;;12.87;100.00;101355.25;5042654;28;20029;-69
2021/12/30 10:51:38;;;;;;;22.92;5.38;;;;;;;12.86;100.00;101345.34;5052414;28;20114;-70
2021/12/30 10:54:28;;;;;;;29.10;5.57;;;;;;;12.66;100.00;101355.38;5064538;28;20033;-70
2021/12/30 10:57:10;;;;;;;24.85;5.65;;;;;;;12.66;100.00;101351.81;5065177;28;20024;-68
2021/12/30 10:59:50;;;;;;;33.13;6.30;;;;;;;12.78;100.00;101373.47;5064548;28;20039;-70
2021/12/30 11:02:18;;;;;;;26.45;5.43;;;;;;;12.56;100.00;101360.94;5066664;28;20115;-71
2021/12/30 11:04:44;;;;;;;28.55;5.70;;;;;;;12.82;100.00;101375.38;5063187;28;20031;-70
2021/12/30 11:07:13;;;;;;;31.25;5.88;;;;;;;12.87;100.00;101378.09;5062466;28;20111;-70